Brundall, United Kingdom
Current Conditions -  °F | °C
As of 3:20 AM on Tuesday 21 Oct 2014 (Local Time) from EGSH Reporting Station
Broken Clouds Broken Clouds  
Wind Chill: 12°   Ceiling: 4600
Heat Index: 12°   Visibility: 6mi
Dew Point: 11°   Wind: 12mph
Humidity: 94%   Direction: 200°SSW
Pressure: 29.68"   Gusts: NA
Location:  52.62°N, 1.44°E
Report Text: EGSH 210220Z AUTO 20010KT 160V240 9999 BKN046/// 12/11 Q1005
Loading
Personal Weather Stations






























Interactive Weather Map
Tropical Storm Tracking
New forecast layout! Learn more

10-Day Weather Forecast

Advertisements
Track Severe Weather on mobile